createdAt,value
2022-11-14T00:00:30.073Z,19.43
2022-11-14T00:03:01.080Z,18.77
2022-11-14T00:05:29.106Z,18.07
2022-11-14T00:07:56.890Z,18.90
2022-11-14T00:10:25.050Z,18.17
2022-11-14T00:12:52.831Z,19.43
2022-11-14T00:15:20.751Z,18.90
2022-11-14T00:17:49.852Z,18.47
2022-11-14T00:20:17.701Z,18.90
2022-11-14T00:22:45.439Z,18.47
2022-11-14T00:25:13.690Z,18.50
2022-11-14T00:27:41.493Z,18.57
2022-11-14T00:30:09.900Z,19.03
2022-11-14T00:32:37.590Z,19.00
2022-11-14T00:35:07.689Z,18.67
2022-11-14T00:37:35.568Z,17.97
2022-11-14T00:40:03.255Z,18.10
2022-11-14T00:42:30.857Z,17.07
2022-11-14T00:44:59.770Z,19.10
2022-11-14T00:47:27.360Z,17.23
2022-11-14T00:49:55.505Z,20.53
2022-11-14T00:52:24.505Z,18.00
2022-11-14T00:54:52.103Z,17.23
2022-11-14T00:57:19.814Z,18.73
2022-11-14T00:59:47.447Z,18.40
2022-11-14T01:02:15.317Z,18.37
2022-11-14T01:04:42.933Z,18.53
2022-11-14T01:07:10.525Z,18.00
2022-11-14T01:09:39.721Z,18.57
2022-11-14T01:12:07.389Z,18.83
2022-11-14T01:14:35.029Z,18.30
2022-11-14T01:17:02.664Z,17.40
2022-11-14T01:19:30.308Z,17.97
2022-11-14T01:22:01.639Z,17.70
2022-11-14T01:24:34.035Z,16.93
2022-11-14T01:27:03.261Z,17.40
2022-11-14T01:29:31.441Z,18.63
2022-11-14T01:31:59.032Z,18.30
2022-11-14T01:34:26.659Z,18.00
2022-11-14T01:36:54.226Z,17.73
2022-11-14T01:39:21.982Z,18.77
2022-11-14T01:41:49.618Z,19.37
2022-11-14T01:44:39.332Z,18.70
2022-11-14T01:47:07.631Z,18.47
2022-11-14T01:49:39.487Z,18.10
2022-11-14T01:52:10.475Z,19.43
2022-11-14T01:54:40.683Z,19.13
2022-11-14T01:57:10.760Z,18.13
2022-11-14T01:59:44.747Z,17.80
2022-11-14T02:02:16.335Z,17.10
2022-11-14T02:04:48.076Z,17.43
2022-11-14T02:07:16.168Z,17.93
2022-11-14T02:09:46.671Z,17.97
2022-11-14T02:12:17.936Z,20.03
2022-11-14T02:14:49.210Z,18.53
2022-11-14T02:17:34.485Z,17.97
2022-11-14T02:20:16.239Z,18.83
2022-11-14T02:22:44.218Z,18.63
2022-11-14T02:25:14.190Z,17.40
2022-11-14T02:27:42.802Z,17.63
2022-11-14T02:30:13.427Z,17.73
2022-11-14T02:35:30.260Z,17.00
2022-11-14T02:37:57.885Z,17.23
2022-11-14T02:40:25.533Z,18.23
2022-11-14T02:42:53.136Z,17.07
2022-11-14T02:45:21.364Z,17.20
2022-11-14T02:47:48.989Z,18.17
2022-11-14T02:50:17.043Z,18.30
2022-11-14T02:52:46.036Z,19.20
2022-11-14T02:55:13.708Z,18.93
2022-11-14T02:57:41.298Z,17.20
2022-11-14T03:00:14.530Z,17.97
2022-11-14T03:02:42.736Z,17.07
2022-11-14T03:05:10.809Z,17.37
2022-11-14T03:07:38.524Z,17.50
2022-11-14T03:10:09.502Z,16.60
2022-11-14T03:12:37.825Z,16.07
2022-11-14T03:15:06.169Z,16.10
2022-11-14T03:17:34.651Z,16.47
2022-11-14T03:20:02.488Z,16.67
2022-11-14T03:22:30.702Z,16.90
2022-11-14T03:24:58.336Z,16.90
2022-11-14T03:27:27.314Z,16.40
2022-11-14T03:29:54.965Z,15.93
2022-11-14T03:32:22.578Z,15.47
2022-11-14T03:34:50.272Z,16.57
2022-11-14T03:37:17.873Z,16.37
2022-11-14T03:39:45.541Z,15.37
2022-11-14T03:42:13.266Z,17.13
2022-11-14T03:44:42.474Z,16.93
2022-11-14T03:47:10.138Z,18.23
2022-11-14T03:49:37.863Z,17.67
2022-11-14T03:52:05.858Z,18.30
2022-11-14T03:54:33.472Z,18.23
2022-11-14T03:57:01.154Z,19.97
2022-11-14T03:59:28.764Z,18.13
2022-11-14T04:01:57.763Z,18.27
2022-11-14T04:04:25.426Z,18.13
2022-11-14T04:06:53.062Z,18.63
2022-11-14T04:09:20.805Z,18.50
2022-11-14T04:11:48.409Z,17.67
2022-11-14T04:14:16.050Z,18.00
2022-11-14T04:16:43.663Z,16.00
2022-11-14T04:19:12.656Z,15.10
2022-11-14T04:21:40.254Z,16.13
2022-11-14T04:24:11.227Z,14.13
2022-11-14T04:26:39.035Z,12.90
2022-11-14T04:29:06.704Z,13.53
2022-11-14T04:31:34.328Z,12.63
2022-11-14T04:34:02.128Z,12.47
2022-11-14T04:36:31.107Z,12.50
2022-11-14T04:38:59.213Z,11.73
2022-11-14T04:41:27.011Z,12.03
2022-11-14T04:43:54.614Z,11.83
2022-11-14T04:46:22.297Z,12.00
2022-11-14T04:48:49.897Z,11.60
2022-11-14T04:51:17.928Z,11.47
2022-11-14T04:53:46.925Z,11.27
2022-11-14T04:56:14.527Z,11.30
2022-11-14T04:58:42.132Z,10.57
2022-11-14T05:01:10.403Z,10.83
2022-11-14T05:03:38.372Z,10.60
2022-11-14T05:06:06.459Z,10.80
2022-11-14T05:08:34.159Z,12.13
2022-11-14T05:11:03.289Z,11.20
2022-11-14T05:13:31.193Z,12.37
2022-11-14T05:16:00.636Z,12.00
2022-11-14T05:18:28.759Z,11.87
2022-11-14T05:20:59.243Z,11.67
2022-11-14T05:23:26.893Z,13.50
2022-11-14T05:26:03.457Z,11.93
2022-11-14T05:28:31.971Z,12.13
2022-11-14T05:31:03.643Z,13.20
2022-11-14T05:33:31.414Z,11.63
2022-11-14T05:36:03.242Z,13.60
2022-11-14T05:38:31.182Z,13.80
2022-11-14T05:40:59.218Z,13.83
2022-11-14T05:43:30.596Z,14.23
2022-11-14T05:46:00.720Z,14.60
2022-11-14T05:48:29.680Z,15.37
2022-11-14T05:50:58.399Z,16.57
2022-11-14T05:53:26.579Z,15.23
2022-11-14T05:55:55.259Z,16.63
2022-11-14T05:58:23.665Z,16.97
2022-11-14T06:00:54.574Z,17.83
2022-11-14T06:03:22.301Z,17.03
2022-11-14T06:05:49.942Z,15.60
2022-11-14T06:08:17.672Z,15.77
2022-11-14T06:10:45.357Z,16.80
2022-11-14T06:13:12.991Z,15.83
2022-11-14T06:15:40.586Z,16.97
2022-11-14T06:18:09.587Z,16.73
2022-11-14T06:20:37.550Z,16.80
2022-11-14T06:23:05.203Z,17.50
2022-11-14T06:25:32.874Z,16.77
2022-11-14T06:28:00.546Z,17.43
2022-11-14T06:30:28.329Z,16.60
2022-11-14T06:32:58.890Z,16.40
2022-11-14T06:35:28.789Z,15.80
2022-11-14T06:37:56.442Z,18.00
2022-11-14T06:40:24.206Z,18.77
2022-11-14T06:42:51.868Z,16.33
2022-11-14T06:45:19.465Z,17.53
2022-11-14T06:47:47.383Z,17.00
2022-11-14T06:50:15.227Z,16.47
2022-11-14T06:52:44.195Z,16.97
2022-11-14T06:55:11.833Z,14.87
2022-11-14T06:57:39.438Z,16.67
2022-11-14T07:00:08.626Z,16.27
2022-11-14T07:02:36.272Z,17.00
2022-11-14T07:05:04.077Z,16.63
2022-11-14T07:07:32.166Z,16.33
2022-11-14T07:10:01.240Z,15.23
2022-11-14T07:12:29.525Z,15.00
2022-11-14T07:14:57.235Z,14.53
2022-11-14T07:17:29.816Z,14.67
2022-11-14T07:19:58.731Z,14.10
2022-11-14T07:22:26.357Z,13.77
2022-11-14T07:24:54.032Z,15.00
2022-11-14T07:27:22.973Z,14.70
2022-11-14T07:29:50.626Z,15.67
2022-11-14T07:32:18.303Z,14.10
2022-11-14T07:34:45.962Z,15.63
2022-11-14T07:37:13.735Z,14.63
2022-11-14T07:39:41.415Z,14.47
2022-11-14T07:42:09.068Z,15.30
2022-11-14T07:44:38.063Z,15.23
2022-11-14T07:47:05.751Z,14.87
2022-11-14T07:49:34.373Z,14.70
2022-11-14T07:52:02.048Z,15.13
2022-11-14T07:54:29.633Z,13.90
2022-11-14T07:56:57.246Z,13.97
2022-11-14T07:59:24.887Z,13.37
2022-11-14T08:01:53.844Z,11.60
2022-11-14T08:04:21.438Z,11.63
2022-11-14T08:06:49.194Z,11.07
2022-11-14T08:09:16.854Z,10.30
2022-11-14T08:11:50.219Z,8.87
2022-11-14T08:14:17.847Z,10.30
2022-11-14T08:16:45.457Z,11.17
2022-11-14T08:19:16.616Z,10.00
2022-11-14T08:21:44.351Z,10.23
2022-11-14T08:24:12.152Z,11.17
2022-11-14T08:26:39.846Z,11.17
2022-11-14T08:29:07.488Z,10.73
2022-11-14T08:31:35.534Z,11.13
2022-11-14T08:34:03.479Z,10.53
2022-11-14T08:36:32.721Z,11.80
2022-11-14T08:39:02.239Z,10.97
2022-11-14T08:41:30.360Z,9.33
2022-11-14T08:43:58.271Z,10.27
2022-11-14T08:46:26.177Z,10.23
2022-11-14T08:48:54.030Z,9.90
2022-11-14T08:51:21.812Z,10.23
2022-11-14T08:53:52.361Z,9.57
2022-11-14T08:56:20.210Z,8.87
2022-11-14T08:58:48.127Z,8.37
2022-11-14T09:01:16.136Z,8.30
2022-11-14T09:03:44.233Z,8.37
2022-11-14T09:06:12.266Z,8.97
2022-11-14T09:08:40.167Z,8.93
2022-11-14T09:11:10.222Z,8.23
2022-11-14T09:13:38.624Z,9.13
2022-11-14T09:16:06.991Z,8.53
2022-11-14T09:18:34.964Z,9.23
2022-11-14T09:21:03.446Z,7.67
2022-11-14T09:23:32.095Z,8.57
2022-11-14T09:26:04.388Z,8.20
2022-11-14T09:28:33.800Z,8.30
2022-11-14T09:31:02.718Z,8.07
2022-11-14T09:33:30.908Z,7.80
2022-11-14T09:35:59.266Z,7.40
2022-11-14T09:38:27.664Z,6.63
2022-11-14T09:41:07.922Z,7.37
2022-11-14T09:43:59.333Z,6.43
2022-11-14T09:46:33.097Z,7.50
2022-11-14T09:49:01.122Z,7.63
2022-11-14T09:51:34.492Z,7.03
2022-11-14T09:54:08.100Z,7.43
2022-11-14T09:56:35.856Z,7.60
2022-11-14T09:59:05.095Z,7.90
2022-11-14T10:01:43.891Z,7.90
2022-11-14T10:04:25.204Z,7.17
2022-11-14T10:07:01.799Z,7.63
2022-11-14T10:09:44.321Z,7.27
2022-11-14T10:12:19.051Z,6.53
2022-11-14T10:15:03.326Z,8.23
2022-11-14T10:18:05.644Z,6.77
2022-11-14T10:20:39.332Z,6.40
2022-11-14T10:23:20.416Z,7.10
2022-11-14T10:25:56.832Z,6.57
2022-11-14T10:28:40.049Z,6.43
2022-11-14T10:31:21.286Z,5.73
2022-11-14T10:33:58.853Z,5.40
2022-11-14T10:36:45.752Z,6.33
2022-11-14T10:39:20.160Z,5.50
2022-11-14T10:41:57.973Z,5.20
2022-11-14T10:44:31.114Z,4.50
2022-11-14T10:47:04.942Z,4.50
2022-11-14T10:49:37.006Z,4.60
2022-11-14T10:52:08.613Z,4.53
2022-11-14T10:54:42.865Z,4.47
2022-11-14T10:57:17.331Z,4.03
2022-11-14T10:59:45.222Z,4.07
2022-11-14T11:02:14.773Z,3.57
2022-11-14T11:04:43.763Z,4.10
2022-11-14T11:07:42.775Z,3.53
2022-11-14T11:10:40.013Z,3.70
2022-11-14T11:13:07.869Z,3.37
2022-11-14T11:15:41.946Z,3.90
2022-11-14T11:18:28.477Z,3.60
2022-11-14T11:21:08.981Z,3.60
2022-11-14T11:23:38.326Z,3.97
2022-11-14T11:26:09.278Z,2.83
2022-11-14T11:28:38.401Z,3.77
2022-11-14T11:31:08.152Z,3.43
2022-11-14T11:33:38.800Z,3.57
2022-11-14T11:36:14.724Z,3.60
2022-11-14T11:38:43.033Z,3.30
2022-11-14T11:42:00.885Z,3.63
2022-11-14T11:44:18.179Z,3.53
2022-11-14T11:46:50.335Z,3.30
2022-11-14T11:49:38.130Z,3.03
2022-11-14T11:52:13.576Z,3.23
2022-11-14T11:54:52.490Z,3.63
2022-11-14T11:57:23.905Z,4.10
2022-11-14T11:59:58.988Z,3.80
2022-11-14T12:02:28.272Z,3.60
2022-11-14T12:04:59.445Z,3.47
2022-11-14T12:07:38.805Z,3.43
2022-11-14T12:10:15.635Z,3.92
2022-11-14T12:13:05.047Z,3.75
2022-11-14T12:15:42.688Z,3.78
2022-11-14T12:18:35.039Z,3.45
2022-11-14T12:21:24.160Z,3.45
2022-11-14T12:24:20.597Z,3.30
2022-11-14T12:27:08.442Z,3.38
2022-11-14T12:30:25.438Z,3.75
2022-11-14T12:32:57.439Z,3.65
2022-11-14T12:35:29.551Z,3.60
2022-11-14T12:38:00.658Z,3.50
2022-11-14T12:40:32.773Z,3.13
2022-11-14T12:43:02.852Z,3.05
2022-11-14T12:45:59.911Z,3.33
2022-11-14T12:48:33.344Z,3.47
2022-11-14T12:51:02.328Z,2.90
2022-11-14T12:53:44.954Z,3.28
2022-11-14T12:57:00.835Z,3.40
2022-11-14T12:59:52.354Z,2.60
2022-11-14T13:02:44.410Z,3.53
2022-11-14T13:05:34.807Z,2.47
2022-11-14T13:08:16.568Z,2.20
2022-11-14T13:10:45.790Z,2.43
2022-11-14T13:13:47.244Z,2.13
2022-11-14T13:16:43.787Z,2.47
2022-11-14T13:19:37.640Z,2.10
2022-11-14T13:22:40.112Z,2.20
2022-11-14T13:25:23.201Z,1.80
2022-11-14T13:28:07.998Z,1.53
2022-11-14T13:31:19.746Z,1.53
2022-11-14T13:33:49.740Z,1.57
2022-11-14T13:36:28.495Z,1.23
2022-11-14T13:39:24.677Z,1.30
2022-11-14T13:42:07.120Z,1.30
2022-11-14T13:45:16.300Z,1.20
2022-11-14T13:48:29.828Z,1.20
2022-11-14T13:51:28.537Z,1.27
2022-11-14T13:53:52.242Z,0.80
2022-11-14T13:56:30.685Z,1.20
2022-11-14T13:59:30.577Z,1.00
2022-11-14T14:02:31.782Z,1.10
2022-11-14T14:05:12.108Z,1.10
2022-11-14T14:07:54.354Z,1.13
2022-11-14T14:10:28.301Z,1.10
2022-11-14T14:13:12.949Z,1.00
2022-11-14T14:15:49.102Z,1.07
2022-11-14T14:18:27.263Z,1.00
2022-11-14T14:21:04.652Z,1.00
2022-11-14T14:23:44.152Z,1.00
2022-11-14T14:26:22.144Z,1.07
2022-11-14T14:29:05.962Z,1.00
2022-11-14T14:31:38.080Z,0.90
2022-11-14T14:34:22.086Z,0.97
2022-11-14T14:36:51.629Z,1.03
2022-11-14T14:39:23.072Z,1.00
2022-11-14T14:41:51.127Z,1.20
2022-11-14T14:44:24.306Z,1.10
2022-11-14T14:46:53.310Z,1.10
2022-11-14T14:49:24.295Z,0.90
2022-11-14T14:51:57.119Z,0.97
2022-11-14T14:54:30.444Z,0.97
2022-11-14T14:57:01.170Z,1.10
2022-11-14T14:59:30.624Z,1.10
2022-11-14T15:01:59.282Z,1.07
2022-11-14T15:04:29.962Z,1.30
2022-11-14T15:06:58.511Z,1.30
2022-11-14T15:09:29.924Z,1.33
2022-11-14T15:12:01.432Z,1.47
2022-11-14T15:14:33.054Z,1.30
2022-11-14T15:17:01.597Z,1.30
2022-11-14T15:19:39.349Z,1.20
2022-11-14T15:22:23.202Z,1.37
2022-11-14T15:25:21.357Z,1.10
2022-11-14T15:27:52.636Z,1.33
2022-11-14T15:30:23.520Z,1.23
2022-11-14T15:32:52.273Z,1.20
2022-11-14T15:35:30.638Z,1.27
2022-11-14T15:38:28.937Z,1.33
2022-11-14T15:41:23.744Z,1.40
2022-11-14T15:43:53.459Z,1.57
2022-11-14T15:46:29.690Z,1.43
2022-11-14T15:48:57.525Z,1.20
2022-11-14T15:51:46.847Z,1.77
2022-11-14T15:54:34.312Z,1.47
2022-11-14T15:57:12.832Z,7.90
2022-11-14T15:59:40.965Z,2.43
2022-11-14T16:02:15.726Z,2.67
2022-11-14T16:04:47.593Z,1.70
2022-11-14T16:07:17.489Z,2.73
2022-11-14T16:09:45.650Z,2.10
2022-11-14T16:12:14.960Z,2.03
2022-11-14T16:14:43.204Z,1.90
2022-11-14T16:17:14.454Z,2.00
2022-11-14T16:19:42.462Z,2.17
2022-11-14T16:22:13.050Z,2.20
2022-11-14T16:24:40.888Z,2.03
2022-11-14T16:27:08.713Z,1.80
2022-11-14T16:29:37.892Z,2.37
2022-11-14T16:32:05.865Z,2.73
2022-11-14T16:34:33.720Z,2.50
2022-11-14T16:37:03.290Z,2.83
2022-11-14T16:39:31.203Z,3.20
2022-11-14T16:42:02.635Z,3.33
2022-11-14T16:44:32.545Z,2.63
2022-11-14T16:47:03.742Z,4.50
2022-11-14T16:49:31.357Z,4.17
2022-11-14T16:52:03.015Z,2.70
2022-11-14T16:54:30.792Z,3.57
2022-11-14T16:56:58.533Z,3.23
2022-11-14T16:59:26.388Z,3.50
2022-11-14T17:01:54.338Z,3.50
2022-11-14T17:04:23.690Z,3.90
2022-11-14T17:06:51.573Z,3.50
2022-11-14T17:09:19.432Z,3.60
2022-11-14T17:11:47.270Z,2.93
2022-11-14T17:14:15.249Z,3.53
2022-11-14T17:16:43.087Z,3.53
2022-11-14T17:19:10.823Z,2.80
2022-11-14T17:21:40.793Z,3.47
2022-11-14T17:24:08.815Z,3.53
2022-11-14T17:26:36.815Z,3.53
2022-11-14T17:29:04.930Z,3.63
2022-11-14T17:31:37.597Z,3.77
2022-11-14T17:34:06.809Z,4.30
2022-11-14T17:36:35.102Z,4.43
2022-11-14T17:39:04.256Z,3.60
2022-11-14T17:41:33.658Z,3.67
2022-11-14T17:44:02.652Z,3.17
2022-11-14T17:46:31.182Z,3.60
2022-11-14T17:48:59.340Z,2.90
2022-11-14T17:51:27.090Z,5.37
2022-11-14T17:53:54.794Z,4.63
2022-11-14T17:56:25.379Z,3.93
2022-11-14T17:58:54.237Z,3.73
2022-11-14T18:01:23.954Z,3.20
2022-11-14T18:03:51.876Z,4.17
2022-11-14T18:06:21.406Z,4.03
2022-11-14T18:08:49.482Z,3.70
2022-11-14T18:11:18.839Z,3.20
2022-11-14T18:13:47.987Z,3.87
2022-11-14T18:16:18.524Z,3.80
2022-11-14T18:18:46.962Z,4.07
2022-11-14T18:21:16.163Z,4.97
2022-11-14T18:23:44.050Z,3.97
2022-11-14T18:26:12.149Z,3.73
2022-11-14T18:28:40.213Z,4.40
2022-11-14T18:31:11.103Z,4.63
2022-11-14T18:33:39.933Z,5.23
2022-11-14T18:36:11.482Z,4.83
2022-11-14T18:38:39.463Z,5.17
2022-11-14T18:41:09.853Z,5.27
2022-11-14T18:43:37.619Z,4.67
2022-11-14T18:46:06.892Z,4.93
2022-11-14T18:48:36.904Z,5.17
2022-11-14T18:51:06.204Z,4.97
2022-11-14T18:53:34.170Z,4.80
2022-11-14T18:56:05.064Z,5.10
2022-11-14T18:58:32.979Z,4.70
2022-11-14T19:01:09.561Z,5.53
2022-11-14T19:03:39.126Z,5.53
2022-11-14T19:06:08.663Z,4.97
2022-11-14T19:08:36.471Z,5.63
2022-11-14T19:11:05.487Z,4.97
2022-11-14T19:13:33.883Z,5.50
2022-11-14T19:16:03.186Z,5.47
2022-11-14T19:18:32.121Z,6.23
2022-11-14T19:21:02.935Z,5.57
2022-11-14T19:23:31.344Z,6.13
2022-11-14T19:26:00.767Z,5.73
2022-11-14T19:28:29.802Z,5.47
2022-11-14T19:31:02.102Z,5.20
2022-11-14T19:33:30.293Z,5.63
2022-11-14T19:35:58.717Z,6.63
2022-11-14T19:38:27.667Z,6.10
2022-11-14T19:40:56.390Z,5.70
2022-11-14T19:43:27.984Z,6.23
2022-11-14T19:45:58.256Z,5.70
2022-11-14T19:48:26.143Z,5.60
2022-11-14T19:51:00.406Z,6.03
2022-11-14T19:53:31.684Z,5.83
2022-11-14T19:56:01.122Z,5.47
2022-11-14T19:58:29.039Z,5.47
2022-11-14T20:01:02.385Z,6.13
2022-11-14T20:03:30.630Z,5.43
2022-11-14T20:05:59.569Z,5.97
2022-11-14T20:08:29.953Z,5.40
2022-11-14T20:10:59.425Z,6.73
2022-11-14T20:13:30.583Z,5.80
2022-11-14T20:16:00.178Z,5.97
2022-11-14T20:18:30.529Z,6.23
2022-11-14T20:21:03.128Z,5.63
2022-11-14T20:23:32.990Z,6.67
2022-11-14T20:26:01.099Z,7.07
2022-11-14T20:28:29.762Z,6.67
2022-11-14T20:31:01.901Z,5.40
2022-11-14T20:33:30.737Z,5.67
2022-11-14T20:36:03.100Z,5.40
2022-11-14T20:38:33.238Z,5.30
2022-11-14T20:41:01.833Z,6.10
2022-11-14T20:43:30.738Z,6.00
2022-11-14T20:45:59.983Z,5.93
2022-11-14T20:48:29.800Z,5.33
2022-11-14T20:51:04.601Z,4.53
2022-11-14T20:53:35.433Z,5.67
2022-11-14T20:56:05.808Z,4.67
2022-11-14T20:58:34.039Z,5.47
2022-11-14T21:01:02.746Z,4.90
2022-11-14T21:03:31.272Z,5.53
2022-11-14T21:06:01.177Z,5.03
2022-11-14T21:08:29.565Z,5.60
2022-11-14T21:11:02.143Z,5.07
2022-11-14T21:13:47.365Z,7.27
2022-11-14T21:16:18.676Z,6.37
2022-11-14T21:18:48.230Z,7.07
2022-11-14T21:21:19.464Z,7.20
2022-11-14T21:23:48.803Z,5.87
2022-11-14T21:26:23.179Z,5.53
2022-11-14T21:28:54.188Z,5.33
2022-11-14T21:31:23.880Z,5.43
2022-11-14T21:33:55.166Z,5.20
2022-11-14T21:36:43.719Z,5.53
2022-11-14T21:39:15.469Z,5.40
2022-11-14T21:41:45.504Z,4.90
2022-11-14T21:44:16.055Z,5.07
2022-11-14T21:46:47.242Z,4.93
2022-11-14T21:49:15.266Z,4.70
2022-11-14T21:51:43.055Z,5.10
2022-11-14T21:54:11.110Z,4.60
2022-11-14T21:56:38.941Z,4.83
2022-11-14T21:59:15.589Z,5.67
2022-11-14T22:02:03.783Z,4.97
2022-11-14T22:04:32.628Z,4.70
2022-11-14T22:07:03.435Z,5.20
2022-11-14T22:09:31.522Z,5.47
2022-11-14T22:12:00.081Z,5.37
2022-11-14T22:14:29.420Z,5.10
2022-11-14T22:16:57.893Z,5.23
2022-11-14T22:19:26.263Z,5.20
2022-11-14T22:21:54.251Z,5.13
2022-11-14T22:24:22.162Z,5.03
2022-11-14T22:26:49.846Z,4.73
2022-11-14T22:29:17.567Z,4.53
2022-11-14T22:31:46.669Z,4.63
2022-11-14T22:34:14.427Z,5.03
2022-11-14T22:36:42.186Z,4.90
2022-11-14T22:39:09.944Z,4.50
2022-11-14T22:41:37.923Z,4.40
2022-11-14T22:44:05.893Z,4.93
2022-11-14T22:46:33.691Z,4.33
2022-11-14T22:49:03.851Z,4.73
2022-11-14T22:51:31.734Z,4.20
2022-11-14T22:53:59.966Z,3.93
2022-11-14T22:56:29.782Z,4.57
2022-11-14T22:58:59.424Z,4.67
2022-11-14T23:01:28.807Z,4.90
2022-11-14T23:03:58.353Z,4.40
2022-11-14T23:06:28.005Z,4.77
2022-11-14T23:08:56.733Z,4.73
2022-11-14T23:11:26.505Z,4.47
2022-11-14T23:13:55.945Z,5.00
2022-11-14T23:16:25.228Z,4.70
2022-11-14T23:18:55.537Z,5.13
2022-11-14T23:21:25.081Z,5.07
2022-11-14T23:23:58.827Z,4.63
2022-11-14T23:26:27.813Z,4.77
2022-11-14T23:28:55.958Z,4.67
2022-11-14T23:31:24.303Z,5.20
2022-11-14T23:33:53.767Z,4.47
2022-11-14T23:36:21.867Z,5.77
2022-11-14T23:38:49.616Z,4.80
2022-11-14T23:41:20.818Z,4.90
2022-11-14T23:43:49.104Z,5.30
2022-11-14T23:46:16.776Z,5.20
2022-11-14T23:48:44.513Z,5.20
2022-11-14T23:51:13.575Z,5.37
2022-11-14T23:53:41.678Z,4.93
2022-11-14T23:56:12.861Z,5.37
2022-11-14T23:58:42.061Z,5.10
